Time;durP1;ratioP1;P1;durP2;ratioP2;P2;SDS_P1;SDS_P2;PMS_P1;PMS_P2;Temp;Humidity;BMP_temperature;BMP_pressure;BME280_temperature;BME280_humidity;BME280_pressure;Samples;Min_cycle;Max_cycle;Signal;HPM_P1;HPM_P2
2024/04/01 00:00:33;;;;;;;3.83;1.03;;;;;;;;;;5001512;28;20177;-87
2024/04/01 00:03:37;;;;;;;4.33;0.70;;;;;;;;;;5011903;28;20658;-87
2024/04/01 00:06:41;;;;;;;4.87;0.70;;;;;;;;;;5011808;28;20224;-87
2024/04/01 00:09:46;;;;;;;6.00;0.70;;;;;;;;;;5000822;28;20176;-87
2024/04/01 00:12:50;;;;;;;6.83;1.00;;;;;;;;;;5012110;28;20184;-87
2024/04/01 00:15:55;;;;;;;3.73;0.60;;;;;;;;;;5022918;28;20216;-87
2024/04/01 00:18:59;;;;;;;4.13;0.80;;;;;;;;;;5014093;28;20176;-87
2024/04/01 00:22:03;;;;;;;4.87;1.00;;;;;;;;;;5027272;28;20180;-87
2024/04/01 00:25:07;;;;;;;5.70;0.90;;;;;;;;;;5005109;28;20622;-88
2024/04/01 00:28:11;;;;;;;2.57;0.60;;;;;;;;;;5015907;28;20193;-87
2024/04/01 00:31:15;;;;;;;5.17;0.60;;;;;;;;;;5015993;28;20185;-87
2024/04/01 00:34:20;;;;;;;4.07;0.97;;;;;;;;;;5005276;28;20527;-88
2024/04/01 00:37:24;;;;;;;4.27;0.97;;;;;;;;;;5004304;28;20208;-87
2024/04/01 00:40:29;;;;;;;5.90;0.90;;;;;;;;;;5015866;28;20177;-87
2024/04/01 00:43:33;;;;;;;4.33;0.90;;;;;;;;;;5004794;28;20180;-88
2024/04/01 00:46:38;;;;;;;9.30;1.57;;;;;;;;;;5003679;28;20224;-88
2024/04/01 00:49:42;;;;;;;2.47;0.83;;;;;;;;;;5015804;28;20189;-87
2024/04/01 00:52:45;;;;;;;4.20;0.70;;;;;;;;;;5015227;28;20185;-87
2024/04/01 00:55:50;;;;;;;5.67;1.00;;;;;;;;;;5004054;28;20689;-87
2024/04/01 00:58:55;;;;;;;5.87;1.00;;;;;;;;;;5004536;28;20177;-88
2024/04/01 01:02:00;;;;;;;6.63;1.00;;;;;;;;;;5004311;28;20185;-87
2024/04/01 01:05:04;;;;;;;4.47;0.80;;;;;;;;;;5004147;28;20630;-87
2024/04/01 01:08:08;;;;;;;3.77;0.87;;;;;;;;;;5003987;28;20511;-87
2024/04/01 01:11:12;;;;;;;5.03;0.77;;;;;;;;;;5015340;28;20185;-88
2024/04/01 01:14:16;;;;;;;5.97;1.30;;;;;;;;;;5004308;28;20646;-87
2024/04/01 01:17:20;;;;;;;4.83;0.80;;;;;;;;;;5003433;28;20216;-87
2024/04/01 01:20:25;;;;;;;3.27;0.80;;;;;;;;;;5014734;28;20185;-87
2024/04/01 01:23:29;;;;;;;5.77;0.80;;;;;;;;;;5015287;28;20523;-87
2024/04/01 01:26:33;;;;;;;3.27;0.77;;;;;;;;;;5013562;28;20228;-88
2024/04/01 01:29:37;;;;;;;3.97;0.70;;;;;;;;;;5002867;28;20185;-87
2024/04/01 01:32:46;;;;;;;3.37;0.87;;;;;;;;;;5003159;28;20192;-87
2024/04/01 01:35:50;;;;;;;7.03;0.70;;;;;;;;;;5003553;28;20213;-87
2024/04/01 01:38:54;;;;;;;4.20;0.83;;;;;;;;;;5003585;28;20629;-87
2024/04/01 01:41:58;;;;;;;2.27;0.70;;;;;;;;;;5002474;28;20204;-87
2024/04/01 01:45:03;;;;;;;2.93;0.50;;;;;;;;;;5013279;28;20173;-87
2024/04/01 01:48:07;;;;;;;2.03;0.67;;;;;;;;;;5023698;28;20208;-87
2024/04/01 01:51:12;;;;;;;2.77;0.73;;;;;;;;;;5001446;28;20221;-88
2024/04/01 01:54:16;;;;;;;4.53;0.90;;;;;;;;;;4998008;28;20173;-88
2024/04/01 01:57:20;;;;;;;2.50;0.50;;;;;;;;;;5012989;28;20221;-88
2024/04/01 02:00:24;;;;;;;2.20;0.83;;;;;;;;;;5013193;28;20181;-88
2024/04/01 02:03:28;;;;;;;2.80;0.50;;;;;;;;;;5013102;28;20547;-87
2024/04/01 02:06:32;;;;;;;2.07;0.57;;;;;;;;;;5013369;28;20232;-87
2024/04/01 02:09:37;;;;;;;4.47;0.80;;;;;;;;;;5002157;28;20181;-87
2024/04/01 02:12:44;;;;;;;5.70;0.90;;;;;;;;;;5013310;28;20185;-87
2024/04/01 02:15:48;;;;;;;3.10;0.77;;;;;;;;;;5013078;28;20216;-87
2024/04/01 02:18:52;;;;;;;5.37;0.60;;;;;;;;;;5001952;28;20181;-87
2024/04/01 02:21:56;;;;;;;3.80;0.80;;;;;;;;;;5002098;28;20180;-87
2024/04/01 02:25:00;;;;;;;5.43;0.90;;;;;;;;;;5027697;23;20232;-86
2024/04/01 02:28:05;;;;;;;3.13;0.77;;;;;;;;;;5022152;28;20202;-87
2024/04/01 02:31:09;;;;;;;7.00;1.07;;;;;;;;;;5012852;28;20515;-86
2024/04/01 02:34:13;;;;;;;5.70;0.83;;;;;;;;;;5003589;28;20213;-87
2024/04/01 02:37:17;;;;;;;5.53;0.80;;;;;;;;;;5004229;28;20182;-85
2024/04/01 02:40:22;;;;;;;3.20;0.60;;;;;;;;;;5002748;28;20190;-85
2024/04/01 02:43:26;;;;;;;2.37;0.83;;;;;;;;;;5003279;28;20217;-85
2024/04/01 02:46:30;;;;;;;3.77;1.10;;;;;;;;;;4996046;28;20218;-84
2024/04/01 02:49:35;;;;;;;4.47;0.73;;;;;;;;;;4991457;28;20187;-84
2024/04/01 02:52:40;;;;;;;5.73;0.80;;;;;;;;;;4992532;28;20186;-86
2024/04/01 02:55:44;;;;;;;4.07;0.80;;;;;;;;;;5004388;28;20186;-86
2024/04/01 02:58:49;;;;;;;3.47;0.93;;;;;;;;;;5015090;28;20183;-85
2024/04/01 03:01:53;;;;;;;3.93;1.23;;;;;;;;;;5013322;28;20186;-85
2024/04/01 03:04:57;;;;;;;3.63;0.97;;;;;;;;;;4992038;28;20560;-85
2024/04/01 03:08:02;;;;;;;4.50;0.97;;;;;;;;;;4993111;28;20210;-85
2024/04/01 03:11:06;;;;;;;10.60;1.27;;;;;;;;;;4989777;28;20182;-85
2024/04/01 03:14:10;;;;;;;5.20;1.10;;;;;;;;;;5000225;28;20217;-85
2024/04/01 03:17:16;;;;;;;4.53;1.00;;;;;;;;;;5002756;28;20186;-85
2024/04/01 03:20:20;;;;;;;13.27;1.37;;;;;;;;;;4989991;28;20182;-86
2024/04/01 03:23:24;;;;;;;4.77;1.00;;;;;;;;;;5002196;28;20221;-85
2024/04/01 03:26:28;;;;;;;12.30;1.67;;;;;;;;;;4991389;28;20186;-85
2024/04/01 03:29:33;;;;;;;9.83;1.50;;;;;;;;;;4985317;28;20186;-85
2024/04/01 03:32:38;;;;;;;12.50;1.70;;;;;;;;;;4982861;28;20225;-85
2024/04/01 03:35:42;;;;;;;5.43;0.97;;;;;;;;;;5003062;28;20622;-84
2024/04/01 03:38:46;;;;;;;4.20;1.07;;;;;;;;;;5005724;28;20225;-85
2024/04/01 03:41:51;;;;;;;7.17;1.00;;;;;;;;;;4996782;28;20186;-86
2024/04/01 03:44:55;;;;;;;7.87;0.97;;;;;;;;;;4995740;28;20217;-84
2024/04/01 03:48:00;;;;;;;7.17;0.97;;;;;;;;;;4995380;28;20214;-85
2024/04/01 03:51:04;;;;;;;5.53;1.07;;;;;;;;;;5008905;28;20182;-85
2024/04/01 03:54:08;;;;;;;6.30;0.90;;;;;;;;;;4996691;28;20214;-85
2024/04/01 03:57:12;;;;;;;8.37;1.10;;;;;;;;;;5008833;28;20540;-85
2024/04/01 04:00:17;;;;;;;4.77;1.13;;;;;;;;;;5007802;28;20189;-85
2024/04/01 04:03:25;;;;;;;6.47;0.93;;;;;;;;;;4995980;28;20205;-85
2024/04/01 04:06:29;;;;;;;4.30;1.00;;;;;;;;;;4985195;28;20186;-86
2024/04/01 04:09:33;;;;;;;7.97;1.43;;;;;;;;;;4996292;28;20516;-85
2024/04/01 04:12:38;;;;;;;5.27;1.10;;;;;;;;;;4995686;28;20178;-85
2024/04/01 04:15:42;;;;;;;4.80;0.87;;;;;;;;;;4984283;28;20186;-85
2024/04/01 04:18:47;;;;;;;5.13;1.20;;;;;;;;;;4995303;28;20182;-85
2024/04/01 04:21:51;;;;;;;3.70;1.10;;;;;;;;;;4996052;28;20183;-84
2024/04/01 04:24:55;;;;;;;3.77;0.90;;;;;;;;;;5005852;28;20225;-85
2024/04/01 04:27:59;;;;;;;5.57;1.00;;;;;;;;;;4995198;28;20217;-85
2024/04/01 04:31:04;;;;;;;4.17;1.00;;;;;;;;;;4996169;28;20178;-85
2024/04/01 04:34:09;;;;;;;4.13;1.00;;;;;;;;;;5003182;28;20213;-86
2024/04/01 04:37:15;;;;;;;3.60;1.00;;;;;;;;;;4996827;28;20174;-86
2024/04/01 04:40:20;;;;;;;6.77;1.00;;;;;;;;;;4998302;28;20626;-86
2024/04/01 04:43:24;;;;;;;2.70;0.80;;;;;;;;;;5017034;28;20217;-87
2024/04/01 04:46:29;;;;;;;3.57;0.93;;;;;;;;;;5025766;28;20185;-86
2024/04/01 04:49:33;;;;;;;3.03;0.87;;;;;;;;;;4999276;28;20178;-85
2024/04/01 04:52:37;;;;;;;3.30;0.80;;;;;;;;;;5007342;28;20182;-85
2024/04/01 04:55:42;;;;;;;3.07;0.90;;;;;;;;;;5013486;28;20186;-87
2024/04/01 04:58:48;;;;;;;3.50;1.00;;;;;;;;;;5024845;28;20178;-86
2024/04/01 05:01:53;;;;;;;6.30;1.17;;;;;;;;;;5002757;28;20190;-86
2024/04/01 05:04:58;;;;;;;4.77;1.00;;;;;;;;;;5004078;28;20221;-86
2024/04/01 05:08:03;;;;;;;6.33;0.90;;;;;;;;;;5027838;28;20209;-86
2024/04/01 05:11:07;;;;;;;2.90;0.90;;;;;;;;;;5027667;28;20182;-84
2024/04/01 05:14:11;;;;;;;5.97;0.97;;;;;;;;;;5026949;28;20221;-85
2024/04/01 05:17:16;;;;;;;5.33;0.70;;;;;;;;;;5026737;28;20181;-85
2024/04/01 05:20:20;;;;;;;6.20;1.00;;;;;;;;;;5037917;28;20178;-85
2024/04/01 05:23:24;;;;;;;4.30;1.20;;;;;;;;;;5025661;28;20221;-85
2024/04/01 05:26:29;;;;;;;9.10;1.27;;;;;;;;;;5038199;28;20178;-85
2024/04/01 05:29:33;;;;;;;2.00;0.70;;;;;;;;;;5019439;28;20170;-85
2024/04/01 05:32:39;;;;;;;4.53;0.80;;;;;;;;;;5009054;28;20182;-85
2024/04/01 05:35:44;;;;;;;6.83;0.90;;;;;;;;;;5014145;28;20634;-86
2024/04/01 05:38:48;;;;;;;5.00;1.07;;;;;;;;;;5014625;28;20630;-85
2024/04/01 05:41:52;;;;;;;4.47;0.90;;;;;;;;;;5020753;28;20185;-85
2024/04/01 05:44:57;;;;;;;5.00;1.27;;;;;;;;;;5025856;28;20221;-85
2024/04/01 05:48:01;;;;;;;4.60;0.93;;;;;;;;;;5022656;28;20217;-85
2024/04/01 05:51:08;;;;;;;3.47;0.90;;;;;;;;;;5025919;28;20207;-85
2024/04/01 05:54:12;;;;;;;6.03;1.10;;;;;;;;;;5035416;28;20213;-86
2024/04/01 05:57:16;;;;;;;4.83;0.80;;;;;;;;;;5025100;28;20178;-86
2024/04/01 06:00:20;;;;;;;4.00;1.30;;;;;;;;;;5011470;28;20177;-86
2024/04/01 06:03:24;;;;;;;4.20;1.00;;;;;;;;;;5011094;28;20216;-86
2024/04/01 06:06:29;;;;;;;5.93;1.13;;;;;;;;;;5022934;28;20186;-85
2024/04/01 06:09:34;;;;;;;4.83;1.13;;;;;;;;;;5022624;28;20574;-85
2024/04/01 06:12:38;;;;;;;6.13;1.27;;;;;;;;;;5021363;28;20181;-87
2024/04/01 06:15:43;;;;;;;2.63;0.80;;;;;;;;;;5022555;28;20240;-86
2024/04/01 06:18:47;;;;;;;2.43;0.90;;;;;;;;;;5013198;28;20173;-87
2024/04/01 06:21:51;;;;;;;5.17;1.50;;;;;;;;;;5011640;28;20181;-86
2024/04/01 06:24:55;;;;;;;5.10;0.90;;;;;;;;;;5023499;28;20224;-86
2024/04/01 06:28:00;;;;;;;3.57;0.87;;;;;;;;;;5023459;28;20209;-87
2024/04/01 06:31:04;;;;;;;5.40;1.50;;;;;;;;;;5008325;28;20174;-88
2024/04/01 06:34:09;;;;;;;8.67;0.87;;;;;;;;;;5022988;28;20256;-86
2024/04/01 06:37:13;;;;;;;6.87;1.20;;;;;;;;;;4991559;28;20520;-88
2024/04/01 06:40:17;;;;;;;5.97;1.10;;;;;;;;;;4991353;28;20181;-88
2024/04/01 06:43:22;;;;;;;3.37;1.00;;;;;;;;;;5019780;28;20181;-88
2024/04/01 06:46:26;;;;;;;3.60;0.90;;;;;;;;;;5000060;28;20634;-87
2024/04/01 06:49:30;;;;;;;6.07;1.10;;;;;;;;;;5029858;28;20209;-88
2024/04/01 06:52:35;;;;;;;3.30;1.07;;;;;;;;;;5007833;28;20182;-87
2024/04/01 06:55:40;;;;;;;4.10;1.00;;;;;;;;;;5022006;28;20178;-85
2024/04/01 06:58:44;;;;;;;4.97;0.80;;;;;;;;;;5021901;28;20173;-86
2024/04/01 07:01:48;;;;;;;5.97;1.20;;;;;;;;;;4996108;28;20185;-88
2024/04/01 07:04:52;;;;;;;3.13;1.07;;;;;;;;;;5017982;28;20224;-88
2024/04/01 07:07:57;;;;;;;3.87;1.97;;;;;;;;;;5012553;28;20205;-88
2024/04/01 07:11:02;;;;;;;5.33;1.03;;;;;;;;;;5004915;28;20181;-87
2024/04/01 07:14:06;;;;;;;3.53;0.80;;;;;;;;;;5014147;28;20217;-88
2024/04/01 07:17:10;;;;;;;1.87;0.87;;;;;;;;;;5027882;28;20635;-88
2024/04/01 07:20:14;;;;;;;4.93;1.40;;;;;;;;;;5009009;28;20173;-86
2024/04/01 07:23:18;;;;;;;5.30;0.90;;;;;;;;;;5022244;28;20177;-85
2024/04/01 07:26:23;;;;;;;12.07;2.07;;;;;;;;;;5012595;28;20186;-84
2024/04/01 07:29:27;;;;;;;12.60;11.17;;;;;;;;;;5016110;28;20209;-84
2024/04/01 07:32:32;;;;;;;4.77;1.30;;;;;;;;;;5033589;28;20593;-84
2024/04/01 07:35:36;;;;;;;3.50;1.00;;;;;;;;;;5015937;28;20638;-85
2024/04/01 07:38:40;;;;;;;2.30;0.63;;;;;;;;;;5021519;28;20186;-85
2024/04/01 07:41:45;;;;;;;9.63;0.60;;;;;;;;;;5021295;28;20190;-85
2024/04/01 07:44:50;;;;;;;6.90;0.70;;;;;;;;;;5020929;28;20221;-84
2024/04/01 07:47:54;;;;;;;7.07;0.87;;;;;;;;;;5021740;28;20178;-84
2024/04/01 07:51:02;;;;;;;2.80;0.50;;;;;;;;;;5010165;28;20174;-85
2024/04/01 07:54:07;;;;;;;5.40;0.73;;;;;;;;;;4998527;28;20709;-86
2024/04/01 07:57:12;;;;;;;0.97;0.60;;;;;;;;;;5023284;28;20182;-85
2024/04/01 08:00:17;;;;;;;6.93;0.80;;;;;;;;;;5007072;28;20178;-80
2024/04/01 08:03:22;;;;;;;6.73;2.30;;;;;;;;;;5023592;28;20182;-85
2024/04/01 08:06:26;;;;;;;6.77;1.60;;;;;;;;;;5022398;28;20181;-85
2024/04/01 08:09:31;;;;;;;9.43;3.93;;;;;;;;;;5007563;28;20201;-84
2024/04/01 08:12:35;;;;;;;45.43;21.33;;;;;;;;;;5033439;28;20185;-84
2024/04/01 08:15:39;;;;;;;6.43;3.83;;;;;;;;;;5023809;28;20184;-85
2024/04/01 08:18:43;;;;;;;2.60;0.80;;;;;;;;;;5036002;28;20221;-86
2024/04/01 08:21:48;;;;;;;6.40;1.13;;;;;;;;;;5000052;28;20190;-85
2024/04/01 09:16:27;;;;;;;1.20;1.10;;;;;;;;;;4976203;28;20199;-89
2024/04/01 09:19:31;;;;;;;1.63;0.57;;;;;;;;;;5012698;28;20224;-89
2024/04/01 09:22:36;;;;;;;0.57;0.57;;;;;;;;;;5014536;28;20185;-89
2024/04/01 09:25:40;;;;;;;0.50;0.50;;;;;;;;;;5014948;28;20220;-89
2024/04/01 09:28:45;;;;;;;0.40;0.40;;;;;;;;;;5048134;28;20181;-89
2024/04/01 09:31:49;;;;;;;0.50;0.40;;;;;;;;;;5013455;28;20185;-89
2024/04/01 09:35:00;;;;;;;0.50;0.50;;;;;;;;;;5035441;28;20228;-88
2024/04/01 09:38:04;;;;;;;1.27;0.80;;;;;;;;;;5024481;28;20182;-90
2024/04/01 09:41:08;;;;;;;1.33;0.80;;;;;;;;;;5013145;28;20181;-90
2024/04/01 09:44:13;;;;;;;3.00;0.80;;;;;;;;;;5013203;28;20558;-90
2024/04/01 09:47:17;;;;;;;1.50;1.30;;;;;;;;;;5024147;28;20185;-89
2024/04/01 09:50:21;;;;;;;1.23;1.13;;;;;;;;;;5012523;28;20180;-89
2024/04/01 09:53:27;;;;;;;0.80;0.60;;;;;;;;;;5012803;28;20546;-89
2024/04/01 09:56:46;;;;;;;1.77;0.37;;;;;;;;;;5035188;28;20184;-89
2024/04/01 09:59:56;;;;;;;1.37;0.50;;;;;;;;;;5012815;28;20205;-89
2024/04/01 10:03:15;;;;;;;1.43;0.50;;;;;;;;;;5035145;28;20174;-88
2024/04/01 10:06:54;;;;;;;0.50;0.40;;;;;;;;;;5023780;28;20178;-88
2024/04/01 10:10:32;;;;;;;0.73;0.60;;;;;;;;;;5035417;28;20181;-88
2024/04/01 10:13:39;;;;;;;0.70;0.60;;;;;;;;;;5023563;28;20185;-86
2024/04/01 10:17:17;;;;;;;0.70;0.70;;;;;;;;;;5023777;28;20180;-87
2024/04/01 10:20:56;;;;;;;0.50;0.50;;;;;;;;;;5023751;28;20209;-87
2024/04/01 10:24:16;;;;;;;0.70;0.50;;;;;;;;;;5016449;28;20211;-89
2024/04/01 10:27:48;;;;;;;0.57;0.40;;;;;;;;;;5043158;28;20177;-90
2024/04/01 10:31:33;;;;;;;0.40;0.40;;;;;;;;;;5031972;28;20172;-90
2024/04/01 10:35:03;;;;;;;0.47;0.40;;;;;;;;;;5043233;28;20216;-90
2024/04/01 10:38:26;;;;;;;0.93;0.40;;;;;;;;;;5055305;28;20189;-89
2024/04/01 10:41:46;;;;;;;1.70;0.40;;;;;;;;;;5031648;28;20490;-88
2024/04/01 10:45:28;;;;;;;0.60;0.40;;;;;;;;;;5042657;28;20216;-88
2024/04/01 10:49:00;;;;;;;0.43;0.40;;;;;;;;;;5031204;28;20168;-89
2024/04/01 10:52:36;;;;;;;0.50;0.40;;;;;;;;;;5042955;28;20181;-89
2024/04/01 10:56:12;;;;;;;0.70;0.40;;;;;;;;;;5048748;28;20224;-89
2024/04/01 10:59:38;;;;;;;0.43;0.40;;;;;;;;;;5026802;28;20224;-89
2024/04/01 11:03:19;;;;;;;1.30;0.40;;;;;;;;;;5042292;28;20189;-89
2024/04/01 11:06:33;;;;;;;0.50;0.40;;;;;;;;;;5031105;28;20216;-89
2024/04/01 11:09:51;;;;;;;0.30;0.30;;;;;;;;;;5030743;28;20168;-87
2024/04/01 11:13:18;;;;;;;0.30;0.30;;;;;;;;;;5021409;28;20184;-87
2024/04/01 11:16:27;;;;;;;0.30;0.30;;;;;;;;;;5020002;28;20172;-87
2024/04/01 11:19:44;;;;;;;0.30;0.30;;;;;;;;;;5019166;28;20204;-88
2024/04/01 11:23:03;;;;;;;0.30;0.30;;;;;;;;;;5019727;28;20184;-87
2024/04/01 11:26:36;;;;;;;0.30;0.30;;;;;;;;;;5019195;28;20561;-87
2024/04/01 11:29:55;;;;;;;0.40;0.40;;;;;;;;;;5041551;28;20251;-87
2024/04/01 11:33:04;;;;;;;0.30;0.30;;;;;;;;;;5042014;28;20168;-89
2024/04/01 11:36:13;;;;;;;0.37;0.37;;;;;;;;;;5042053;28;20641;-88
2024/04/01 11:39:19;;;;;;;0.33;0.30;;;;;;;;;;5041754;28;20208;-89
2024/04/01 11:42:27;;;;;;;0.50;0.40;;;;;;;;;;5041745;28;20176;-89
2024/04/01 11:45:36;;;;;;;0.30;0.30;;;;;;;;;;5041887;28;20215;-89
2024/04/01 11:48:40;;;;;;;0.87;0.30;;;;;;;;;;5029997;28;20176;-88
2024/04/01 11:51:51;;;;;;;0.53;0.53;;;;;;;;;;5041891;28;20172;-87
2024/04/01 11:55:09;;;;;;;4.10;2.60;;;;;;;;;;5041904;28;20220;-89
2024/04/01 11:58:14;;;;;;;4.47;2.97;;;;;;;;;;5030011;28;20177;-89
2024/04/01 12:01:31;;;;;;;4.23;3.10;;;;;;;;;;5054394;28;20176;-86
2024/04/01 12:04:36;;;;;;;20.03;14.13;;;;;;;;;;5018751;28;20212;-87
2024/04/01 12:07:40;;;;;;;6.87;4.60;;;;;;;;;;5019286;28;20547;-87
2024/04/01 12:10:46;;;;;;;2.53;2.33;;;;;;;;;;5019358;28;20176;-87
2024/04/01 12:13:53;;;;;;;1.20;1.00;;;;;;;;;;5018735;28;20219;-87
2024/04/01 12:17:00;;;;;;;1.50;0.80;;;;;;;;;;5030598;28;20180;-87
2024/04/01 12:20:05;;;;;;;0.40;0.40;;;;;;;;;;5018825;28;20212;-87
2024/04/01 12:23:10;;;;;;;1.63;0.50;;;;;;;;;;5019362;28;20652;-87
2024/04/01 12:26:14;;;;;;;0.40;0.30;;;;;;;;;;5018224;28;20204;-89
2024/04/01 12:29:21;;;;;;;2.10;0.40;;;;;;;;;;5030156;28;20188;-89
2024/04/01 12:32:26;;;;;;;0.60;0.40;;;;;;;;;;5029624;28;20184;-88
2024/04/01 12:35:31;;;;;;;0.30;0.30;;;;;;;;;;5029918;28;20219;-89
2024/04/01 12:38:40;;;;;;;0.93;0.30;;;;;;;;;;5029974;28;20180;-89
2024/04/01 12:41:44;;;;;;;0.30;0.30;;;;;;;;;;5018636;28;20176;-89
2024/04/01 12:44:49;;;;;;;3.63;2.13;;;;;;;;;;5040983;28;20223;-89
2024/04/01 12:47:56;;;;;;;0.90;0.70;;;;;;;;;;5029757;28;20649;-89
2024/04/01 12:51:03;;;;;;;0.90;0.60;;;;;;;;;;5041167;28;20181;-89
2024/04/01 12:54:42;;;;;;;1.40;0.40;;;;;;;;;;5044042;28;20699;-89
2024/04/01 12:58:21;;;;;;;1.53;0.50;;;;;;;;;;4975991;28;20183;-89
2024/04/01 13:01:37;;;;;;;0.80;0.40;;;;;;;;;;5041149;28;20200;-88
2024/04/01 13:05:21;;;;;;;0.50;0.50;;;;;;;;;;5029308;28;20212;-89
2024/04/01 13:08:37;;;;;;;0.50;0.50;;;;;;;;;;5040826;28;20177;-88
2024/04/01 13:11:54;;;;;;;0.67;0.60;;;;;;;;;;5018281;28;20169;-87
2024/04/01 13:15:24;;;;;;;1.47;0.43;;;;;;;;;;5051803;28;20208;-87
2024/04/01 13:18:40;;;;;;;0.53;0.43;;;;;;;;;;5017938;28;20172;-87
2024/04/01 13:22:08;;;;;;;0.37;0.30;;;;;;;;;;5040784;28;20169;-87
2024/04/01 13:25:30;;;;;;;0.80;0.70;;;;;;;;;;5018366;28;20231;-86
2024/04/01 13:28:42;;;;;;;2.13;1.60;;;;;;;;;;5021201;28;20185;-87
2024/04/01 13:32:00;;;;;;;0.30;0.30;;;;;;;;;;5021378;28;20545;-87
2024/04/01 13:35:21;;;;;;;0.30;0.30;;;;;;;;;;5021109;28;20704;-87
2024/04/01 13:38:52;;;;;;;0.63;0.43;;;;;;;;;;5032417;28;20180;-87
2024/04/01 13:42:37;;;;;;;0.53;0.30;;;;;;;;;;5032850;28;20176;-87
2024/04/01 13:46:10;;;;;;;1.23;0.60;;;;;;;;;;5044136;28;20208;-87
2024/04/01 13:49:43;;;;;;;0.50;0.30;;;;;;;;;;5021119;28;20180;-88
2024/04/01 13:53:15;;;;;;;1.37;0.40;;;;;;;;;;5043933;28;20522;-87
2024/04/01 13:56:55;;;;;;;0.63;0.30;;;;;;;;;;5021428;28;20192;-87
2024/04/01 14:00:05;;;;;;;0.37;0.30;;;;;;;;;;5020946;28;20410;-87
2024/04/01 14:03:57;;;;;;;0.90;0.30;;;;;;;;;;5044464;28;20180;-88
2024/04/01 14:07:32;;;;;;;0.63;0.40;;;;;;;;;;5049385;28;20180;-87
2024/04/01 14:10:57;;;;;;;0.30;0.30;;;;;;;;;;5031942;28;20177;-87
2024/04/01 14:14:20;;;;;;;0.30;0.30;;;;;;;;;;5032009;28;20220;-87
2024/04/01 14:17:41;;;;;;;0.70;0.23;;;;;;;;;;5032128;28;20176;-87
2024/04/01 14:20:47;;;;;;;1.00;1.00;;;;;;;;;;5021252;28;20554;-87
2024/04/01 14:23:56;;;;;;;1.57;0.60;;;;;;;;;;5101509;22;20220;-82
2024/04/01 14:27:00;;;;;;;0.70;0.70;;;;;;;;;;5006114;28;20206;-86
2024/04/01 14:30:09;;;;;;;0.97;0.50;;;;;;;;;;5016760;28;20170;-88
2024/04/01 14:33:18;;;;;;;0.67;0.30;;;;;;;;;;5005548;28;20182;-87
2024/04/01 14:36:23;;;;;;;0.50;0.30;;;;;;;;;;4993947;28;20201;-87
2024/04/01 14:39:27;;;;;;;0.50;0.50;;;;;;;;;;5017494;28;20533;-87
2024/04/01 14:42:32;;;;;;;0.30;0.30;;;;;;;;;;5019228;28;20174;-87
2024/04/01 14:45:37;;;;;;;0.50;0.40;;;;;;;;;;5010338;28;20213;-87
2024/04/01 14:48:42;;;;;;;0.30;0.30;;;;;;;;;;4998559;28;20638;-87
2024/04/01 14:51:46;;;;;;;0.60;0.43;;;;;;;;;;5022189;28;20178;-88
2024/04/01 14:54:51;;;;;;;0.80;0.40;;;;;;;;;;5009256;28;20220;-88
2024/04/01 14:57:56;;;;;;;0.30;0.30;;;;;;;;;;5011305;28;20185;-89
2024/04/01 15:01:00;;;;;;;0.23;0.23;;;;;;;;;;5008444;28;20551;-88
2024/04/01 15:04:08;;;;;;;0.80;0.80;;;;;;;;;;5009801;28;20225;-87
2024/04/01 15:07:14;;;;;;;0.60;0.43;;;;;;;;;;5020647;28;20178;-89
2024/04/01 15:10:19;;;;;;;0.30;0.30;;;;;;;;;;5009771;28;20177;-86
2024/04/01 15:13:23;;;;;;;1.53;0.37;;;;;;;;;;5020033;28;20189;-88
2024/04/01 15:16:28;;;;;;;0.30;0.30;;;;;;;;;;5020806;28;20181;-88
2024/04/01 15:19:35;;;;;;;0.30;0.30;;;;;;;;;;5021443;28;20185;-89
2024/04/01 15:22:40;;;;;;;2.87;0.40;;;;;;;;;;5010717;28;20177;-88
2024/04/01 15:25:44;;;;;;;0.40;0.40;;;;;;;;;;5026588;28;20229;-83
2024/04/01 15:28:57;;;;;;;4.73;0.40;;;;;;;;;;5017696;28;20182;-89
2024/04/01 15:32:02;;;;;;;0.50;0.40;;;;;;;;;;5017321;28;20178;-86
2024/04/01 15:35:07;;;;;;;2.03;1.30;;;;;;;;;;4996994;28;20559;-87
2024/04/01 15:38:12;;;;;;;2.10;1.40;;;;;;;;;;5030336;28;20181;-91
2024/04/01 15:41:21;;;;;;;2.03;0.90;;;;;;;;;;4997837;28;20201;-88
2024/04/01 15:44:30;;;;;;;3.83;2.93;;;;;;;;;;5011808;28;20567;-87
2024/04/01 15:47:36;;;;;;;2.17;1.93;;;;;;;;;;5023959;28;20181;-88
2024/04/01 15:50:41;;;;;;;6.93;5.10;;;;;;;;;;5022775;28;20523;-89
2024/04/01 15:53:51;;;;;;;5.57;4.17;;;;;;;;;;4995620;28;20182;-88
2024/04/01 15:56:55;;;;;;;1.00;0.97;;;;;;;;;;5005764;28;20174;-88
2024/04/01 16:00:00;;;;;;;1.13;0.60;;;;;;;;;;5012630;28;20181;-88
2024/04/01 16:03:04;;;;;;;3.13;1.40;;;;;;;;;;5023655;28;20169;-87
2024/04/01 16:06:10;;;;;;;0.90;0.70;;;;;;;;;;4993840;28;20185;-88
2024/04/01 16:09:15;;;;;;;1.10;1.00;;;;;;;;;;5025425;28;20181;-87
2024/04/01 16:12:24;;;;;;;0.63;0.50;;;;;;;;;;5026106;28;20622;-88
2024/04/01 16:15:34;;;;;;;0.63;0.57;;;;;;;;;;5019771;28;20209;-88
2024/04/01 16:18:51;;;;;;;0.70;0.40;;;;;;;;;;5020009;28;20181;-88
2024/04/01 16:34:04;;;;;;;0.40;0.40;;;;;;;;;;5017650;28;20535;-88
